createdAt,value
2024-05-09T00:01:37.556Z,2.25
2024-05-09T00:06:39.308Z,2.97
2024-05-09T00:11:41.096Z,2.58
2024-05-09T00:16:43.387Z,3.00
2024-05-09T00:21:45.129Z,2.33
2024-05-09T00:26:46.804Z,2.45
2024-05-09T00:31:48.642Z,3.38
2024-05-09T00:36:51.043Z,2.40
2024-05-09T00:41:52.772Z,3.13
2024-05-09T00:46:56.142Z,3.13
2024-05-09T00:51:57.969Z,3.67
2024-05-09T00:56:59.983Z,4.07
2024-05-09T01:02:01.827Z,4.13
2024-05-09T01:07:03.664Z,4.32
2024-05-09T01:12:05.779Z,4.30
2024-05-09T01:17:07.795Z,4.72
2024-05-09T01:22:09.935Z,4.20
2024-05-09T01:27:11.615Z,4.30
2024-05-09T01:32:13.524Z,4.25
2024-05-09T01:37:15.279Z,3.70
2024-05-09T01:42:17.294Z,4.80
2024-05-09T01:47:19.137Z,4.90
2024-05-09T01:52:20.838Z,3.03
2024-05-09T01:57:22.624Z,4.25
2024-05-09T02:02:25.468Z,4.18
2024-05-09T02:07:27.254Z,2.88
2024-05-09T02:12:29.124Z,3.28
2024-05-09T02:17:32.601Z,3.60
2024-05-09T02:22:34.582Z,3.78
2024-05-09T02:27:36.403Z,3.33
2024-05-09T02:32:38.336Z,3.35
2024-05-09T02:37:40.159Z,3.78
2024-05-09T02:42:41.873Z,3.45
2024-05-09T02:47:43.911Z,4.13
2024-05-09T02:52:45.951Z,2.88
2024-05-09T02:57:47.983Z,2.70
2024-05-09T03:02:49.846Z,4.07
2024-05-09T03:07:51.761Z,3.20
2024-05-09T03:12:53.497Z,3.88
2024-05-09T03:17:55.288Z,4.53
2024-05-09T03:22:57.263Z,3.67
2024-05-09T03:27:59.503Z,3.80
2024-05-09T03:33:01.356Z,4.00
2024-05-09T03:38:03.220Z,3.75
2024-05-09T03:43:05.004Z,3.80
2024-05-09T03:48:07.317Z,4.10
2024-05-09T03:53:13.154Z,4.38
2024-05-09T03:58:15.096Z,4.05
2024-05-09T04:03:17.035Z,3.75
2024-05-09T04:08:18.986Z,4.38
2024-05-09T04:13:20.782Z,2.67
2024-05-09T04:18:22.548Z,4.07
2024-05-09T04:23:24.422Z,4.47
2024-05-09T04:28:26.376Z,3.33
2024-05-09T04:33:28.287Z,3.88
2024-05-09T04:38:30.360Z,3.15
2024-05-09T04:43:33.319Z,3.47
2024-05-09T04:48:35.077Z,4.15
2024-05-09T04:53:37.102Z,4.53
2024-05-09T04:58:39.076Z,3.65
2024-05-09T05:03:40.998Z,3.80
2024-05-09T05:08:42.869Z,3.97
2024-05-09T05:13:44.727Z,4.75
2024-05-09T05:18:46.718Z,4.07
2024-05-09T05:23:48.591Z,3.30
2024-05-09T05:28:50.972Z,3.88
2024-05-09T05:33:52.816Z,2.92
2024-05-09T05:38:54.596Z,2.25
2024-05-09T05:43:56.336Z,2.47
2024-05-09T05:48:58.133Z,2.25
2024-05-09T05:53:59.841Z,3.17
2024-05-09T05:59:01.744Z,2.30
2024-05-09T06:04:03.544Z,2.55
2024-05-09T06:09:06.249Z,3.22
2024-05-09T06:14:08.955Z,3.05
2024-05-09T06:19:10.819Z,3.05
2024-05-09T06:24:12.997Z,3.33
2024-05-09T06:29:14.792Z,2.38
2024-05-09T06:34:18.851Z,3.30
2024-05-09T06:39:20.693Z,3.03
2024-05-09T06:44:22.821Z,3.55
2024-05-09T06:49:29.001Z,3.38
2024-05-09T06:54:31.192Z,3.13
2024-05-09T06:59:33.027Z,3.13
2024-05-09T07:04:35.102Z,3.50
2024-05-09T07:09:37.448Z,3.22
2024-05-09T07:14:39.253Z,3.55
2024-05-09T07:19:41.549Z,3.75
2024-05-09T07:24:43.297Z,3.40
2024-05-09T07:29:45.075Z,3.30
2024-05-09T07:34:46.793Z,3.72
2024-05-09T07:39:48.569Z,2.40
2024-05-09T07:44:50.353Z,3.22
2024-05-09T07:51:32.803Z,3.20
2024-05-09T07:55:13.889Z,2.60
2024-05-09T08:00:20.404Z,2.88
2024-05-09T08:05:28.742Z,2.90
2024-05-09T08:10:30.588Z,2.60
2024-05-09T08:15:32.687Z,3.45
2024-05-09T08:20:39.544Z,3.40
2024-05-09T08:30:43.157Z,2.30
2024-05-09T08:35:45.037Z,2.10
2024-05-09T08:40:47.137Z,2.10
2024-05-09T08:45:49.671Z,2.03
2024-05-09T08:50:54.893Z,2.30
2024-05-09T08:56:01.274Z,1.83
2024-05-09T09:01:04.410Z,1.95
2024-05-09T09:06:12.328Z,1.58
2024-05-09T09:11:14.181Z,2.33
2024-05-09T09:16:17.150Z,1.90
2024-05-09T09:21:18.927Z,2.25
2024-05-09T09:26:20.622Z,2.13
2024-05-09T09:31:22.398Z,2.53
2024-05-09T09:36:28.192Z,2.42
2024-05-09T09:41:30.593Z,2.40
2024-05-09T09:46:32.514Z,2.20
2024-05-09T09:51:35.567Z,1.90
2024-05-09T09:56:39.356Z,2.10
2024-05-09T10:01:43.367Z,2.10
2024-05-09T10:06:57.985Z,1.23
2024-05-09T10:12:13.622Z,1.25
2024-05-09T10:17:16.888Z,1.88
2024-05-09T10:22:28.698Z,1.80
2024-05-09T10:27:31.157Z,1.05
2024-05-09T10:32:40.359Z,1.85
2024-05-09T10:37:42.117Z,2.13
2024-05-09T10:42:44.170Z,2.08
2024-05-09T10:47:46.049Z,1.70
2024-05-09T10:52:48.123Z,1.45
2024-05-09T10:57:50.204Z,1.83
2024-05-09T11:02:55.855Z,1.52
2024-05-09T11:07:57.661Z,1.85
2024-05-09T11:12:59.497Z,1.88
2024-05-09T11:18:01.341Z,1.92
2024-05-09T11:23:06.823Z,1.65
2024-05-09T11:33:15.010Z,1.70
2024-05-09T11:38:16.741Z,2.17
2024-05-09T11:43:18.576Z,2.13
2024-05-09T11:48:20.399Z,1.90
2024-05-09T11:53:22.386Z,1.95
2024-05-09T11:58:24.127Z,1.80
2024-05-09T12:03:25.854Z,2.40
2024-05-09T12:08:27.642Z,1.80
2024-05-09T12:13:29.438Z,1.65
2024-05-09T12:18:31.578Z,1.73
2024-05-09T12:23:33.334Z,1.73
2024-05-09T12:28:34.994Z,2.15
2024-05-09T12:33:36.873Z,2.10
2024-05-09T12:38:38.625Z,2.13
2024-05-09T12:43:40.292Z,1.70
2024-05-09T12:48:42.123Z,1.75
2024-05-09T12:53:43.897Z,1.70
2024-05-09T12:58:45.651Z,2.45
2024-05-09T13:03:47.561Z,2.08
2024-05-09T13:08:49.405Z,1.90
2024-05-09T13:13:51.091Z,1.40
2024-05-09T13:18:52.862Z,1.75
2024-05-09T13:23:56.195Z,2.35
2024-05-09T13:28:58.566Z,1.92
2024-05-09T13:34:00.389Z,1.88
2024-05-09T13:39:02.359Z,1.55
2024-05-09T13:44:04.131Z,1.90
2024-05-09T13:49:07.134Z,1.45
2024-05-09T13:54:10.241Z,1.90
2024-05-09T13:59:11.992Z,1.70
2024-05-09T14:04:14.051Z,1.30
2024-05-09T14:09:16.175Z,2.20
2024-05-09T14:14:17.891Z,2.08
2024-05-09T14:19:19.697Z,2.17
2024-05-09T14:24:21.505Z,1.77
2024-05-09T14:29:23.174Z,1.55
2024-05-09T14:34:25.152Z,1.55
2024-05-09T14:39:27.013Z,1.65
2024-05-09T14:44:28.713Z,1.70
2024-05-09T14:49:31.228Z,1.10
2024-05-09T14:54:32.997Z,1.70
2024-05-09T14:59:34.740Z,1.88
2024-05-09T15:04:36.783Z,1.67
2024-05-09T15:09:38.932Z,2.10
2024-05-09T15:14:40.694Z,1.92
2024-05-09T15:19:45.147Z,2.72
2024-05-09T15:24:47.861Z,1.70
2024-05-09T15:29:49.574Z,1.75
2024-05-09T15:34:51.257Z,2.00
2024-05-09T15:39:53.179Z,1.27
2024-05-09T15:44:54.951Z,2.40
2024-05-09T15:49:56.791Z,2.15
2024-05-09T15:54:58.665Z,2.10
2024-05-09T16:00:00.592Z,4.68
2024-05-09T16:05:02.567Z,2.10
2024-05-09T16:10:06.837Z,2.20
2024-05-09T16:15:08.860Z,1.52
2024-05-09T16:20:15.145Z,1.70
2024-05-09T16:25:20.157Z,1.95
2024-05-09T16:30:28.282Z,1.70
2024-05-09T16:35:37.886Z,1.98
2024-05-09T16:40:41.249Z,1.83
2024-05-09T16:45:44.758Z,1.83
2024-05-09T16:50:46.753Z,1.50
2024-05-09T16:55:48.641Z,1.73
2024-05-09T17:00:50.734Z,1.38
2024-05-09T17:05:52.827Z,2.03
2024-05-09T17:10:55.510Z,2.83
2024-05-09T17:15:57.542Z,3.47
2024-05-09T17:20:59.355Z,2.75
2024-05-09T17:26:01.274Z,3.17
2024-05-09T17:31:03.070Z,2.33
2024-05-09T17:36:04.985Z,2.40
2024-05-09T17:41:06.678Z,3.20
2024-05-09T17:46:08.468Z,2.13
2024-05-09T17:51:10.216Z,2.28
2024-05-09T17:56:11.995Z,1.98
2024-05-09T18:01:13.975Z,1.90
2024-05-09T18:06:16.693Z,1.92
2024-05-09T18:11:18.477Z,2.30
2024-05-09T18:16:20.513Z,4.65
2024-05-09T18:21:22.361Z,5.47
2024-05-09T18:26:24.033Z,6.10
2024-05-09T18:31:25.894Z,5.03
2024-05-09T18:36:27.714Z,5.25
2024-05-09T18:41:29.391Z,6.35
2024-05-09T18:46:31.361Z,4.95
2024-05-09T18:51:33.269Z,3.70
2024-05-09T18:56:36.973Z,3.97
2024-05-09T19:01:41.985Z,3.50
2024-05-09T19:06:45.216Z,2.80
2024-05-09T19:11:47.062Z,2.47
2024-05-09T19:16:48.919Z,2.78
2024-05-09T19:21:50.687Z,2.97
2024-05-09T19:26:52.612Z,3.03
2024-05-09T19:31:54.794Z,3.38
2024-05-09T19:36:56.660Z,3.42
2024-05-09T19:41:58.455Z,3.45
2024-05-09T19:47:00.316Z,3.97
2024-05-09T19:52:02.050Z,4.30
2024-05-09T19:57:04.038Z,4.47
2024-05-09T20:02:05.869Z,5.35
2024-05-09T20:07:07.761Z,4.28
2024-05-09T20:12:09.782Z,3.80
2024-05-09T20:17:14.324Z,4.95
2024-05-09T20:22:16.251Z,6.60
2024-05-09T20:27:18.073Z,6.45
2024-05-09T20:32:19.953Z,7.32
2024-05-09T20:37:21.972Z,7.32
2024-05-09T20:42:23.924Z,8.38
2024-05-09T20:47:25.741Z,7.28
2024-05-09T20:52:27.586Z,4.90
2024-05-09T20:57:29.316Z,5.25
2024-05-09T21:02:31.162Z,5.32
2024-05-09T21:07:32.997Z,6.20
2024-05-09T21:12:34.868Z,6.72
2024-05-09T21:17:36.700Z,6.30
2024-05-09T21:22:38.485Z,7.05
2024-05-09T21:27:40.508Z,6.10
2024-05-09T21:32:42.487Z,5.45
2024-05-09T21:37:44.376Z,6.20
2024-05-09T21:42:46.056Z,6.20
2024-05-09T21:47:47.895Z,6.40
2024-05-09T21:52:49.664Z,5.22
2024-05-09T21:57:51.374Z,5.85
2024-05-09T22:02:53.119Z,4.85
2024-05-09T22:07:54.977Z,5.30
2024-05-09T22:12:56.643Z,7.53
2024-05-09T22:17:58.486Z,5.70
2024-05-09T22:23:00.225Z,6.57
2024-05-09T22:28:02.813Z,7.43
2024-05-09T22:33:05.939Z,7.45
2024-05-09T22:38:07.862Z,8.77
2024-05-09T22:43:09.772Z,11.00
2024-05-09T22:48:11.897Z,10.32
2024-05-09T22:53:13.746Z,10.15
2024-05-09T22:58:15.621Z,8.93
2024-05-09T23:03:18.723Z,11.65
2024-05-09T23:08:20.543Z,9.98
2024-05-09T23:13:22.517Z,9.52
2024-05-09T23:18:24.410Z,8.82
2024-05-09T23:23:26.098Z,9.38
2024-05-09T23:28:27.902Z,9.82
2024-05-09T23:33:29.899Z,8.43
2024-05-09T23:38:31.609Z,8.95
2024-05-09T23:43:33.606Z,9.20
2024-05-09T23:48:39.098Z,8.18
2024-05-09T23:53:47.199Z,7.47
2024-05-09T23:58:48.908Z,6.93
